Moran, WY (83013)

5:10 PM MDT on August 25, 2016 (GMT -0600)
Dubois Muni, Dubois, WY | | Change Station

Elev 7297 ft 43.55 °N, 109.69 °W | Updated 15 minutes ago

Drizzle
Drizzle
52 °F
Feels Like 52 °F
N
21
Wind Variable Wind from SW
Gusts 26 mph

Today
High -- | Low -- °F
--% Chance of Precip.
Yesterday
High -- | Low -- °F
Precip. -- in
Pressure 30.24 in
Visibility 7.0 miles
Clouds Scattered Clouds 1000 ft
Scattered Clouds 6000 ft
Overcast 8000 ft
Dew Point 37 °F
Humidity 58%
Rainfall 0.00 in
Snow Depth Not available.
6:37 AM 8:08 PM
Last Quarter, 41% visible
METAR KDUB 252255Z AUTO 23018G23KT 7SM DZ SCT010 SCT060 OVC080 11/03 A3024 RMK AO2 LTG DSNT S
Pressure 30.24 in
Visibility 7.0 miles
Clouds Scattered Clouds 1000 ft
Scattered Clouds 6000 ft
Overcast 8000 ft
Dew Point 37 °F
Humidity 58%
Rainfall 0.00 in
Snow Depth Not available.
6:37 AM 8:08 PM
Last Quarter, 41% visible
METAR KDUB 252255Z AUTO 23018G23KT 7SM DZ SCT010 SCT060 OVC080 11/03 A3024 RMK AO2 LTG DSNT S
A tropical disturbance pushing toward the Bahamas, is expected to develop into a tropical depression or storm, and will likely target Florida and the Gulf Coast this weekend into next week.

Right now, the disturbance remains a broad area of low pressure pushing through the Dominican Republic and Haiti, headed toward the southeast Bahamas. Rainfall totals over 3 inches (with locally higher amounts) are expected in HispaƱiola, particularly over elevated terrain.

10-Day Weather Forecast

Almanac

Astronomy

Aug. 25, 2016 Rise Set
Actual Time
Civil Twilight
Nautical Twilight
Astronomical Twilight
Moon
Length of Visible Light
Length of Day
Tomorrow will be .
, % of the Moon is Illuminated

Today's Extremes

State Highs State Lows

Community

WunderPhotos

Upload Photos

1,934,956 photos uploaded!

WunderBlog® & News

Nearby

Air Quality

  Air Quality AQ Index Pollutant
Not available.

Snow Depth

Station Depth Elevation

Earthquake Activity

City Distance Mag. Time & Date
Minimum magnitude displayed is 2.5.

Coastal Water Temperatures

Place Temperature

Stations

Nearby Weather Stations

Station Location Temp. Windchill Dew Point Humidity Wind Precip. Elev Updated Type
                   

Watches & Warnings

There are currently no watches in effect.